Time;durP1;ratioP1;P1;durP2;ratioP2;P2;SDS_P1;SDS_P2;PMS_P1;PMS_P2;Temp;Humidity;BMP_temperature;BMP_pressure;BME280_temperature;BME280_humidity;BME280_pressure;Samples;Min_cycle;Max_cycle;Signal;HPM_P1;HPM_P2
2021/06/02 00:00:05;;;;;;;0.93;0.93;;;;;;;12.83;69.24;93905.69;4919869;29;20040;-88
2021/06/02 00:02:30;;;;;;;2.25;1.10;;;;;;;12.88;70.35;93919.63;4920293;29;20508;-88
2021/06/02 00:05:01;;;;;;;1.20;1.10;;;;;;;12.89;70.27;93915.09;4920895;29;20054;-88
2021/06/02 00:07:26;;;;;;;1.00;1.00;;;;;;;13.10;69.64;93923.34;4906667;29;20035;-88
2021/06/02 00:09:54;;;;;;;1.13;1.10;;;;;;;13.14;68.10;93922.50;4920714;29;20043;-88
2021/06/02 00:12:21;;;;;;;1.10;1.00;;;;;;;13.12;69.32;93916.72;4919358;29;20122;-91
2021/06/02 00:14:47;;;;;;;1.10;1.00;;;;;;;13.17;67.27;93921.13;4920258;29;20035;-87
2021/06/02 00:17:14;;;;;;;0.80;0.80;;;;;;;13.09;66.39;93909.34;4918648;29;20056;-87
2021/06/02 00:19:39;;;;;;;1.23;0.90;;;;;;;13.01;66.32;93907.38;4919143;29;20063;-88
2021/06/02 00:22:07;;;;;;;1.98;0.85;;;;;;;13.02;66.59;93903.66;4918094;29;20023;-86
2021/06/02 00:24:33;;;;;;;0.90;0.90;;;;;;;13.00;65.97;93901.28;4894908;29;20530;-91
2021/06/02 00:27:00;;;;;;;0.90;0.90;;;;;;;12.87;66.45;93890.72;4902833;29;20047;-92
2021/06/02 00:29:34;;;;;;;1.85;0.90;;;;;;;12.98;66.59;93900.03;4919122;29;20040;-91
2021/06/02 00:32:02;;;;;;;5.80;1.00;;;;;;;12.87;65.95;93875.59;4914525;29;20079;-91
2021/06/02 00:34:29;;;;;;;0.90;0.90;;;;;;;13.04;65.68;93901.50;4919712;29;20186;-90
2021/06/02 00:36:58;;;;;;;0.70;0.70;;;;;;;13.01;65.76;93907.38;4918228;29;20964;-92
2021/06/02 00:39:24;;;;;;;2.65;1.02;;;;;;;13.03;65.34;93899.91;4919734;29;20051;-92
2021/06/02 00:41:50;;;;;;;0.73;0.73;;;;;;;13.11;64.98;93903.72;4902348;29;20044;-88
2021/06/02 00:44:18;;;;;;;1.20;1.10;;;;;;;13.06;64.53;93904.59;4918497;29;20047;-89
2021/06/02 00:46:44;;;;;;;7.72;1.75;;;;;;;13.15;65.43;93912.66;4918657;28;20036;-88
2021/06/02 00:49:22;;;;;;;1.48;1.10;;;;;;;13.05;65.48;93903.03;4919829;29;20058;-90
2021/06/02 00:52:00;;;;;;;2.35;1.42;;;;;;;13.08;66.09;93907.75;4916952;29;20488;-85
2021/06/02 00:54:30;;;;;;;1.98;1.55;;;;;;;13.11;67.14;93906.34;4915976;29;20039;-90
2021/06/02 00:57:03;;;;;;;2.85;2.65;;;;;;;13.16;67.50;93899.09;4920874;29;20130;-89
2021/06/02 00:59:36;;;;;;;6.70;2.75;;;;;;;13.22;67.67;93899.75;4925435;29;20043;-91
2021/06/02 01:02:03;;;;;;;2.47;2.28;;;;;;;13.16;68.38;93916.88;4907005;29;20134;-83
2021/06/02 01:04:29;;;;;;;2.35;2.13;;;;;;;13.22;67.84;93916.47;4924626;29;20366;-89
2021/06/02 01:06:56;;;;;;;3.70;2.50;;;;;;;13.17;68.24;93915.81;4923126;29;20077;-89
2021/06/02 01:09:23;;;;;;;2.95;2.58;;;;;;;13.18;68.59;93915.50;4922841;29;20052;-93
2021/06/02 01:11:51;;;;;;;3.83;2.83;;;;;;;13.16;68.41;93900.97;4921978;29;20039;-90
2021/06/02 01:14:18;;;;;;;2.95;2.65;;;;;;;13.19;68.82;93911.00;4918950;29;21103;-91
2021/06/02 01:16:44;;;;;;;2.95;2.65;;;;;;;13.26;69.54;93914.78;4922822;29;20031;-89
2021/06/02 01:19:12;;;;;;;4.45;3.47;;;;;;;13.12;68.64;93908.75;4923282;29;20133;-88
2021/06/02 01:21:54;;;;;;;3.72;3.17;;;;;;;13.17;69.43;93903.31;4919368;29;20048;-91
2021/06/02 01:24:20;;;;;;;4.07;3.45;;;;;;;13.20;69.33;93915.97;4912861;29;20055;-90
2021/06/02 01:26:51;;;;;;;5.93;3.50;;;;;;;13.22;68.61;93915.69;4921438;29;20051;-92
2021/06/02 01:29:17;;;;;;;3.83;3.28;;;;;;;12.99;68.70;93891.78;4923121;29;20583;-91
2021/06/02 01:32:17;;;;;;;3.78;3.35;;;;;;;13.00;69.39;93884.59;4920161;29;20040;-89
2021/06/02 01:34:45;;;;;;;3.50;3.08;;;;;;;13.15;69.47;93924.06;4883080;29;20050;-88
2021/06/02 01:37:38;;;;;;;5.78;3.13;;;;;;;13.05;69.17;93913.66;4923176;29;20035;-88
2021/06/02 01:40:39;;;;;;;5.07;4.00;;;;;;;13.05;69.18;93923.50;4920052;29;20463;-88
2021/06/02 01:43:35;;;;;;;7.00;4.03;;;;;;;13.01;69.56;93916.13;4898528;29;20043;-90
2021/06/02 01:46:19;;;;;;;;;;;;;;;12.91;70.04;93915.56;4922905;29;20032;-89
2021/06/02 01:49:22;;;;;;;5.60;4.70;;;;;;;12.83;70.24;93911.78;4922003;29;19923;-87
2021/06/02 01:52:06;;;;;;;5.75;4.43;;;;;;;12.79;70.58;93925.94;4913963;29;20464;-88
2021/06/02 01:55:09;;;;;;;9.00;5.70;;;;;;;12.79;71.01;93926.72;4921920;29;20040;-91
2021/06/02 01:58:03;;;;;;;7.45;5.47;;;;;;;12.80;71.10;93922.97;4919956;29;20078;-89
2021/06/02 02:00:46;;;;;;;6.97;6.28;;;;;;;12.75;71.58;93919.66;4923250;29;20051;-90
2021/06/02 02:03:39;;;;;;;6.25;5.65;;;;;;;12.81;71.76;93923.75;4903444;29;20135;-88
2021/06/02 02:06:37;;;;;;;7.65;6.53;;;;;;;12.76;71.75;93916.69;4921502;29;20050;-91
2021/06/02 02:09:16;;;;;;;10.60;7.32;;;;;;;12.76;71.54;93923.84;4868108;29;20055;-86
2021/06/02 02:11:43;;;;;;;9.50;7.70;;;;;;;12.65;72.10;93918.00;4920806;29;20044;-88
2021/06/02 02:14:46;;;;;;;10.82;8.68;;;;;;;12.65;72.46;93927.81;4920675;29;20047;-90
2021/06/02 02:17:30;;;;;;;11.15;8.18;;;;;;;12.51;72.63;93928.63;4923493;29;20090;-90
2021/06/02 02:20:04;;;;;;;8.98;8.18;;;;;;;12.45;73.46;93921.88;4916163;29;20130;-88
2021/06/02 02:23:00;;;;;;;14.52;10.15;;;;;;;12.50;73.35;93935.03;4920202;29;20089;-88
2021/06/02 02:25:38;;;;;;;10.75;9.70;;;;;;;12.35;73.56;93921.28;4916808;29;20054;-91
2021/06/02 02:28:40;;;;;;;12.88;11.02;;;;;;;12.53;73.24;93934.41;4920626;29;20540;-92
2021/06/02 02:31:35;;;;;;;13.68;11.52;;;;;;;12.35;73.40;93919.41;4918776;29;20098;-91
2021/06/02 02:34:27;;;;;;;14.18;10.43;;;;;;;12.57;73.07;93951.28;4918787;29;20055;-89
2021/06/02 02:37:01;;;;;;;12.40;10.55;;;;;;;12.45;73.53;93927.16;4910807;29;20529;-90
2021/06/02 02:39:50;;;;;;;13.23;10.85;;;;;;;12.57;73.60;93951.28;4917908;29;20135;-87
2021/06/02 02:42:53;;;;;;;13.57;11.40;;;;;;;12.56;73.31;93944.41;4908178;29;20043;-91
2021/06/02 02:45:28;;;;;;;13.05;11.55;;;;;;;12.55;73.43;93953.47;4918809;29;20047;-90
2021/06/02 02:48:12;;;;;;;14.27;11.80;;;;;;;12.55;73.28;93953.47;4922431;29;20106;-90
2021/06/02 02:51:03;;;;;;;15.43;13.07;;;;;;;12.48;73.41;93947.78;4918693;29;20118;-85
2021/06/02 02:53:58;;;;;;;15.73;12.77;;;;;;;12.44;73.55;93956.59;4922245;29;20044;-86
2021/06/02 02:57:01;;;;;;;14.95;13.10;;;;;;;12.43;73.67;93955.81;4913226;29;20501;-87
2021/06/02 02:59:44;;;;;;;16.45;13.23;;;;;;;12.39;73.51;93944.25;4920071;29;20147;-89
2021/06/02 03:02:16;;;;;;;16.42;13.15;;;;;;;12.48;73.54;93952.28;4920438;29;20039;-87
2021/06/02 03:04:55;;;;;;;16.55;13.30;;;;;;;12.39;73.57;93938.94;4920558;29;20035;-86
2021/06/02 03:07:22;;;;;;;15.38;13.32;;;;;;;12.43;73.28;93944.44;4921989;29;20032;-88
2021/06/02 03:10:09;;;;;;;16.40;13.15;;;;;;;12.33;73.56;93944.63;4919409;29;20103;-88
2021/06/02 03:13:22;;;;;;;13.98;12.55;;;;;;;12.40;73.84;93961.72;4919968;29;20503;-89
2021/06/02 03:15:50;;;;;;;15.25;13.40;;;;;;;12.39;73.76;93946.91;4889096;29;20051;-92
2021/06/02 03:18:38;;;;;;;17.90;12.32;;;;;;;12.46;73.60;93965.06;4912658;29;20048;-90
2021/06/02 03:21:34;;;;;;;14.75;12.27;;;;;;;12.47;73.50;93962.09;4915639;29;20046;-88
2021/06/02 03:24:30;;;;;;;16.00;11.55;;;;;;;12.54;73.28;93961.72;4907682;29;20051;-93
2021/06/02 03:27:21;;;;;;;14.05;11.82;;;;;;;12.49;73.32;93965.25;4910023;29;20052;-88
2021/06/02 03:29:53;;;;;;;16.25;11.95;;;;;;;12.52;73.35;93975.25;4921164;29;20048;-91
2021/06/02 03:33:00;;;;;;;12.13;10.63;;;;;;;12.57;73.09;93972.50;4913624;29;20059;-84
2021/06/02 03:35:38;;;;;;;18.95;12.35;;;;;;;12.49;73.13;93975.84;4918127;29;20075;-91
2021/06/02 03:38:27;;;;;;;17.40;11.20;;;;;;;12.60;73.34;93976.44;4919456;29;20037;-93
2021/06/02 03:41:00;;;;;;;12.55;11.23;;;;;;;12.65;72.85;93989.59;4919675;29;20595;-90
2021/06/02 03:43:34;;;;;;;13.60;12.07;;;;;;;12.63;72.73;93989.09;4918495;29;20035;-90
2021/06/02 03:46:24;;;;;;;15.20;11.15;;;;;;;12.63;72.78;93990.97;4903314;29;20048;-86
2021/06/02 03:49:07;;;;;;;17.25;11.50;;;;;;;12.65;72.87;93994.09;4919821;29;21550;-91
2021/06/02 03:51:50;;;;;;;15.00;11.77;;;;;;;12.66;72.63;93996.44;4918222;29;20048;-86
2021/06/02 03:54:27;;;;;;;13.05;11.05;;;;;;;12.79;72.24;94000.97;4921275;29;20040;-92
2021/06/02 03:56:59;;;;;;;13.20;11.07;;;;;;;13.13;72.27;94000.53;4918030;29;20614;-92
2021/06/02 04:00:00;;;;;;;13.50;9.13;;;;;;;14.12;66.33;93999.53;4922090;29;20087;-90
2021/06/02 04:02:39;;;;;;;11.18;9.80;;;;;;;14.89;64.59;93988.41;4896310;29;20051;-91
2021/06/02 04:05:22;;;;;;;10.93;9.00;;;;;;;15.55;62.50;94003.97;4919595;29;20107;-90
2021/06/02 04:08:24;;;;;;;18.13;7.97;;;;;;;16.14;59.07;94003.44;4921859;29;20041;-88
2021/06/02 04:11:00;;;;;;;7.88;7.07;;;;;;;16.13;57.79;94012.53;4916282;29;20027;-90
2021/06/02 04:13:58;;;;;;;9.20;7.60;;;;;;;16.08;58.75;94018.03;4918021;29;20110;-92
2021/06/02 04:16:32;;;;;;;9.23;7.68;;;;;;;16.16;58.33;94001.25;4906726;29;20095;-91
2021/06/02 04:19:10;;;;;;;10.30;7.00;;;;;;;16.06;57.97;94005.03;4911729;29;20456;-90
2021/06/02 04:21:40;;;;;;;8.02;7.22;;;;;;;16.00;58.77;94000.97;4916429;29;20040;-88
2021/06/02 04:24:07;;;;;;;9.13;7.40;;;;;;;16.22;57.70;94011.44;4894547;29;20047;-92
2021/06/02 04:26:35;;;;;;;13.52;8.30;;;;;;;16.37;57.02;94018.88;4914604;29;20054;-83
2021/06/02 04:29:08;;;;;;;8.15;7.35;;;;;;;16.24;57.61;94009.22;4915053;29;20127;-86
2021/06/02 04:31:37;;;;;;;9.15;8.02;;;;;;;16.03;58.17;94003.75;4899259;29;20039;-86
2021/06/02 04:34:03;;;;;;;9.18;7.75;;;;;;;16.18;58.46;94031.81;4920667;29;20332;-86
2021/06/02 04:36:30;;;;;;;11.77;8.38;;;;;;;16.13;59.17;94029.31;4918582;29;20488;-91
2021/06/02 04:38:57;;;;;;;12.60;8.23;;;;;;;15.89;58.58;94027.16;4899892;29;20459;-87
2021/06/02 04:41:26;;;;;;;15.13;10.52;;;;;;;15.87;58.89;94015.25;4916545;29;20441;-87
2021/06/02 04:43:55;;;;;;;11.73;8.85;;;;;;;15.69;59.50;94029.66;4916787;29;20544;-85
2021/06/02 04:46:21;;;;;;;13.35;9.52;;;;;;;15.60;60.15;94043.00;4918646;29;20028;-89
2021/06/02 04:48:51;;;;;;;15.25;9.90;;;;;;;15.27;61.02;94015.22;4910789;29;20060;-90
2021/06/02 04:52:02;;;;;;;13.73;9.52;;;;;;;15.48;61.39;94045.47;4911349;29;20054;-88
2021/06/02 04:54:47;;;;;;;13.95;10.90;;;;;;;15.51;64.09;94034.22;4890700;29;20048;-85
2021/06/02 04:57:52;;;;;;;18.70;10.95;;;;;;;15.35;63.09;94043.72;4915042;28;20206;-90
2021/06/02 05:00:56;;;;;;;17.08;9.60;;;;;;;15.37;62.89;94044.22;4891843;29;20873;-87
2021/06/02 05:03:56;;;;;;;11.23;10.05;;;;;;;15.24;63.02;94019.31;4920212;29;20638;-91
2021/06/02 05:06:40;;;;;;;17.08;10.50;;;;;;;15.28;63.67;94046.09;4879905;29;20916;-88
2021/06/02 05:09:44;;;;;;;21.17;10.95;;;;;;;15.20;63.84;94036.97;4919691;29;20036;-92
2021/06/02 05:12:47;;;;;;;14.38;11.20;;;;;;;15.23;64.47;94048.91;4918187;29;20517;-93
2021/06/02 05:15:41;;;;;;;14.77;11.02;;;;;;;15.31;63.73;94046.25;4921222;29;20043;-93
2021/06/02 05:18:31;;;;;;;15.68;12.05;;;;;;;15.28;62.62;94052.19;4907797;29;20099;-89
2021/06/02 05:24:02;;;;;;;16.70;10.03;;;;;;;15.24;63.00;94050.47;4918239;29;20555;-89
2021/06/02 05:26:52;;;;;;;13.70;9.65;;;;;;;15.19;63.59;94056.72;4918818;29;20270;-91
2021/06/02 05:29:38;;;;;;;14.60;10.50;;;;;;;15.14;63.00;94057.66;4917619;29;20047;-92
2021/06/02 05:32:49;;;;;;;12.35;10.38;;;;;;;15.12;63.24;94065.16;4921003;29;20039;-91
2021/06/02 05:35:30;;;;;;;14.25;10.07;;;;;;;15.18;64.25;94057.81;4889255;29;20052;-89
2021/06/02 05:38:23;;;;;;;13.32;9.30;;;;;;;15.32;64.26;94063.00;4915638;29;20354;-91
2021/06/02 05:41:02;;;;;;;19.58;11.13;;;;;;;15.43;63.89;94069.59;4919129;29;20036;-89
2021/06/02 05:43:46;;;;;;;13.63;9.57;;;;;;;15.36;62.69;94058.63;4902464;29;20031;-85
2021/06/02 05:46:33;;;;;;;12.70;9.88;;;;;;;15.47;62.90;94062.56;4918247;29;20047;-90
2021/06/02 05:49:17;;;;;;;12.80;9.05;;;;;;;15.64;62.56;94059.16;4920445;29;20067;-90
2021/06/02 05:51:59;;;;;;;14.27;8.98;;;;;;;15.82;62.42;94061.50;4919134;29;20154;-89
2021/06/02 05:54:57;;;;;;;10.00;7.25;;;;;;;15.96;59.56;94053.34;4919423;29;20102;-90
2021/06/02 05:58:05;;;;;;;14.93;7.15;;;;;;;16.40;58.58;94054.81;4919913;29;20044;-84
2021/06/02 06:00:48;;;;;;;10.35;6.20;;;;;;;16.86;56.39;94052.16;4919328;29;20043;-90
2021/06/02 06:03:39;;;;;;;7.28;5.68;;;;;;;17.38;53.34;94059.91;4919278;29;20257;-85
2021/06/02 06:06:27;;;;;;;7.15;6.07;;;;;;;17.56;52.71;94063.25;4917891;29;20066;-90
2021/06/02 06:09:05;;;;;;;6.20;5.22;;;;;;;18.00;52.81;94062.59;4904982;29;20626;-83
2021/06/02 06:11:55;;;;;;;6.68;5.70;;;;;;;18.44;51.38;94066.44;4918899;29;20075;-88
2021/06/02 06:14:42;;;;;;;7.93;4.57;;;;;;;18.93;50.48;94053.16;4919120;29;20756;-84
2021/06/02 06:17:25;;;;;;;10.82;4.57;;;;;;;19.30;49.88;94041.31;4920917;29;20083;-89
2021/06/02 06:20:15;;;;;;;7.25;4.78;;;;;;;19.48;48.39;94047.25;4918286;29;20059;-85
2021/06/02 06:23:13;;;;;;;9.20;4.15;;;;;;;19.11;46.77;94057.16;4917432;29;20333;-91
2021/06/02 06:25:51;;;;;;;7.90;4.57;;;;;;;19.73;47.67;94053.34;4921380;29;20301;-92
2021/06/02 06:28:32;;;;;;;7.03;4.38;;;;;;;20.18;45.65;94056.53;4924453;29;20027;-91
2021/06/02 06:30:58;;;;;;;8.40;4.00;;;;;;;20.41;45.88;94053.34;4898914;29;20361;-91
2021/06/02 06:33:27;;;;;;;5.03;3.35;;;;;;;20.43;43.65;94054.53;4920055;29;20126;-88
2021/06/02 06:35:55;;;;;;;4.72;3.53;;;;;;;20.91;42.44;94050.81;4918602;29;20126;-91
2021/06/02 06:38:28;;;;;;;7.05;4.22;;;;;;;21.05;42.28;94040.38;4920797;29;20580;-88
2021/06/02 06:40:55;;;;;;;3.92;3.15;;;;;;;21.67;41.15;94044.13;4916543;29;20050;-91
2021/06/02 06:43:23;;;;;;;6.57;3.67;;;;;;;23.52;38.96;94046.38;4922730;29;20027;-92
2021/06/02 06:45:52;;;;;;;4.07;2.42;;;;;;;25.26;35.18;94045.69;4920401;29;20122;-86
2021/06/02 06:48:21;;;;;;;5.45;2.30;;;;;;;26.30;32.95;94040.50;4918628;29;20371;-84
2021/06/02 06:50:50;;;;;;;5.30;2.17;;;;;;;27.31;31.46;94040.34;4919200;29;20095;-91
2021/06/02 06:53:17;;;;;;;3.30;2.20;;;;;;;28.16;31.06;94032.06;4917981;29;20087;-91
2021/06/02 06:55:45;;;;;;;2.95;2.30;;;;;;;28.55;28.91;94029.94;4918750;29;20122;-92
2021/06/02 06:58:11;;;;;;;3.08;2.30;;;;;;;29.95;28.72;94042.19;4920494;29;20054;-91
2021/06/02 07:00:38;;;;;;;5.57;2.55;;;;;;;31.16;26.84;94042.22;4919063;29;20425;-90
2021/06/02 07:03:04;;;;;;;4.85;2.38;;;;;;;31.82;26.35;94039.56;4919256;29;20056;-91
2021/06/02 07:05:31;;;;;;;5.15;2.00;;;;;;;32.07;24.82;94044.59;4899569;29;20496;-90
2021/06/02 07:07:57;;;;;;;5.22;2.22;;;;;;;32.74;25.21;94037.06;4920938;29;20099;-89
2021/06/02 07:10:23;;;;;;;4.43;2.00;;;;;;;32.73;25.03;94046.47;4906131;29;20042;-92
2021/06/02 07:12:49;;;;;;;4.07;2.40;;;;;;;31.85;24.94;94048.13;4916564;29;20047;-90
2021/06/02 07:15:15;;;;;;;4.68;2.20;;;;;;;31.34;25.21;94053.63;4919171;29;20415;-90
2021/06/02 07:17:47;;;;;;;9.50;2.78;;;;;;;31.07;26.48;94057.56;4916002;29;20039;-88
2021/06/02 07:20:24;;;;;;;5.05;2.08;;;;;;;29.82;27.29;94054.72;4920035;29;20092;-92
2021/06/02 07:22:52;;;;;;;3.88;2.40;;;;;;;29.26;27.59;94064.91;4919838;29;20061;-89
2021/06/02 07:25:21;;;;;;;4.05;2.45;;;;;;;28.70;28.72;94053.19;4922941;29;20577;-87
2021/06/02 07:27:48;;;;;;;8.20;2.00;;;;;;;29.50;27.29;94055.03;4918938;29;20094;-89
2021/06/02 07:30:16;;;;;;;4.38;2.38;;;;;;;30.47;26.96;94054.44;4911702;29;20508;-89
2021/06/02 07:32:42;;;;;;;3.65;1.80;;;;;;;31.51;25.62;94046.34;4900251;29;20146;-90
2021/06/02 07:35:08;;;;;;;4.55;2.17;;;;;;;32.62;24.66;94041.19;4920558;29;20101;-90
2021/06/02 07:37:34;;;;;;;5.32;2.22;;;;;;;33.70;22.83;94041.13;4921099;29;20119;-88
2021/06/02 07:40:00;;;;;;;3.42;1.65;;;;;;;33.64;23.53;94040.06;4920693;29;20043;-88
2021/06/02 07:42:28;;;;;;;4.32;2.00;;;;;;;33.51;22.32;94044.69;4918968;29;20051;-87
2021/06/02 07:44:54;;;;;;;5.10;1.45;;;;;;;32.50;23.96;94047.28;4921073;29;20051;-83
2021/06/02 07:47:20;;;;;;;6.82;2.33;;;;;;;31.96;24.58;94046.75;4909896;29;20422;-89
2021/06/02 07:49:46;;;;;;;4.10;2.03;;;;;;;30.40;27.01;94054.50;4919628;29;20039;-90
2021/06/02 07:52:11;;;;;;;5.20;2.28;;;;;;;29.52;27.96;94052.66;4919752;29;20084;-86
2021/06/02 07:54:37;;;;;;;5.28;2.42;;;;;;;29.52;27.79;94053.44;4916822;29;20040;-83
2021/06/02 07:57:03;;;;;;;5.88;2.55;;;;;;;30.66;26.63;94046.81;4918416;29;20459;-89
2021/06/02 07:59:28;;;;;;;4.28;1.50;;;;;;;32.23;24.60;94047.44;4918341;29;20035;-89
2021/06/02 08:01:53;;;;;;;4.20;1.60;;;;;;;33.70;22.95;94052.06;4916551;29;20559;-83
2021/06/02 08:04:19;;;;;;;4.10;2.05;;;;;;;34.08;22.28;94054.22;4916804;29;20365;-89
2021/06/02 08:06:44;;;;;;;3.55;1.80;;;;;;;33.29;22.71;94049.13;4919547;29;20044;-89
2021/06/02 08:09:16;;;;;;;6.18;1.98;;;;;;;32.33;23.89;94061.31;4922165;29;20039;-92
2021/06/02 08:11:42;;;;;;;4.50;2.05;;;;;;;31.32;24.86;94056.03;4906191;29;20424;-89
2021/06/02 08:14:07;;;;;;;3.47;1.80;;;;;;;29.88;26.36;94058.56;4901566;29;20432;-88
2021/06/02 08:16:32;;;;;;;3.58;1.77;;;;;;;30.75;25.22;94055.25;4926724;29;20059;-87
2021/06/02 08:18:58;;;;;;;4.22;1.90;;;;;;;31.58;24.93;94053.66;4919268;29;20693;-86
2021/06/02 08:21:23;;;;;;;4.53;2.30;;;;;;;31.32;23.97;94058.75;4918167;29;20048;-89
2021/06/02 08:23:50;;;;;;;6.18;2.17;;;;;;;30.63;24.80;94064.78;4917721;29;20499;-91
2021/06/02 08:26:15;;;;;;;5.00;1.92;;;;;;;30.29;25.41;94051.13;4926150;29;20031;-89
2021/06/02 08:28:41;;;;;;;4.03;2.30;;;;;;;30.21;25.77;94057.84;4920093;29;20491;-83
2021/06/02 08:31:06;;;;;;;6.95;1.90;;;;;;;31.31;25.92;94059.94;4926544;29;20028;-87
2021/06/02 08:33:32;;;;;;;3.85;2.35;;;;;;;32.16;24.37;94055.75;4921104;29;20563;-87
2021/06/02 08:35:57;;;;;;;4.35;2.00;;;;;;;31.36;24.94;94051.28;4921845;29;20511;-83
2021/06/02 08:38:23;;;;;;;3.90;1.63;;;;;;;31.50;25.30;94068.59;4920384;29;20048;-89
2021/06/02 08:40:48;;;;;;;5.53;1.88;;;;;;;32.36;23.70;94049.53;4923562;29;20042;-90
2021/06/02 08:43:18;;;;;;;5.38;1.90;;;;;;;32.92;23.58;94048.38;4923616;29;21193;-85
2021/06/02 08:45:49;;;;;;;4.07;1.55;;;;;;;33.26;22.75;94050.00;4922699;29;20159;-90
2021/06/02 08:48:18;;;;;;;2.25;1.98;;;;;;;33.23;22.93;94045.38;4917955;29;20621;-88
2021/06/02 08:50:44;;;;;;;4.63;1.90;;;;;;;32.29;23.53;94058.66;4902643;29;20052;-88
2021/06/02 08:53:14;;;;;;;3.42;1.40;;;;;;;31.80;24.31;94063.84;4912749;29;20040;-86
2021/06/02 08:55:44;;;;;;;6.28;1.45;;;;;;;32.27;24.45;94054.78;4924856;29;20055;-85
2021/06/02 08:58:10;;;;;;;5.22;1.80;;;;;;;32.89;24.03;94059.41;4924214;29;20032;-87
2021/06/02 09:00:35;;;;;;;2.92;1.38;;;;;;;32.32;24.17;94066.00;4919923;29;20047;-87
2021/06/02 09:03:05;;;;;;;3.60;1.58;;;;;;;32.40;23.38;94066.66;4920113;29;20518;-84
2021/06/02 09:05:30;;;;;;;3.08;1.45;;;;;;;32.12;23.41;94046.88;4907199;29;20070;-86
2021/06/02 09:07:57;;;;;;;6.03;2.08;;;;;;;30.92;25.13;94054.25;4918657;29;28176;-86
2021/06/02 09:10:23;;;;;;;3.35;1.30;;;;;;;30.42;25.73;94068.50;4921780;29;20472;-87
2021/06/02 09:12:56;;;;;;;3.50;1.27;;;;;;;29.84;26.91;94052.38;4920953;29;20514;-87
2021/06/02 09:15:25;;;;;;;2.28;1.20;;;;;;;29.39;26.93;94057.81;4920813;29;20208;-87
2021/06/02 09:17:53;;;;;;;1.52;1.20;;;;;;;29.13;26.80;94058.38;4919847;29;20039;-86
2021/06/02 09:20:42;;;;;;;1.83;1.73;;;;;;;28.79;27.09;94050.81;4919566;29;20062;-84
2021/06/02 09:23:31;;;;;;;3.28;1.58;;;;;;;28.68;29.31;94055.53;4919570;29;20094;-88
2021/06/02 09:26:12;;;;;;;2.47;1.90;;;;;;;27.76;28.51;94050.38;4921975;29;20476;-87
2021/06/02 09:29:03;;;;;;;2.65;1.70;;;;;;;27.24;28.99;94051.19;4921462;29;20027;-86
2021/06/02 09:31:44;;;;;;;2.55;1.20;;;;;;;27.19;29.01;94044.22;4920971;29;20042;-86
2021/06/02 09:34:17;;;;;;;3.00;1.40;;;;;;;27.17;28.97;94040.34;4922440;29;20184;-86
2021/06/02 09:36:45;;;;;;;3.15;1.75;;;;;;;26.86;30.38;94053.47;4918018;29;20054;-89
2021/06/02 09:39:13;;;;;;;2.75;1.60;;;;;;;26.51;30.91;94061.50;4919351;29;20047;-87
2021/06/02 09:41:51;;;;;;;3.80;2.25;;;;;;;26.37;31.00;94053.31;4916010;28;20103;-88
2021/06/02 09:44:19;;;;;;;9.10;1.77;;;;;;;26.35;31.48;94055.63;4917204;28;20047;-86
2021/06/02 09:47:07;;;;;;;3.72;1.70;;;;;;;25.89;30.78;94056.19;4918132;29;20042;-83
2021/06/02 09:49:45;;;;;;;2.17;1.70;;;;;;;25.65;30.91;94054.88;4921109;29;20908;-83
2021/06/02 09:52:10;;;;;;;3.13;1.88;;;;;;;25.40;30.86;94038.44;4920708;29;20114;-86
2021/06/02 09:54:36;;;;;;;7.40;3.85;;;;;;;25.40;31.56;94056.59;4916222;29;20086;-86
2021/06/02 09:57:10;;;;;;;4.75;2.63;;;;;;;25.54;31.85;94050.50;4919792;29;20115;-82
2021/06/02 09:59:53;;;;;;;3.50;2.20;;;;;;;25.05;31.62;94057.09;4919214;29;20326;-85
2021/06/02 10:02:18;;;;;;;6.45;3.00;;;;;;;25.00;32.30;94060.13;4894247;29;20644;-86
2021/06/02 10:04:44;;;;;;;4.97;1.95;;;;;;;24.83;32.26;94055.28;4918755;29;20024;-86
2021/06/02 10:07:20;;;;;;;6.50;3.28;;;;;;;24.64;33.04;94058.19;4918503;29;20035;-87
2021/06/02 10:09:46;;;;;;;3.20;2.00;;;;;;;24.55;33.67;94053.88;4920822;29;20074;-81
2021/06/02 10:12:13;;;;;;;4.30;2.17;;;;;;;24.43;32.05;94056.84;4916842;29;20059;-84
2021/06/02 10:14:53;;;;;;;3.53;1.80;;;;;;;23.98;32.44;94060.50;4919804;29;20725;-86
2021/06/02 10:17:37;;;;;;;4.80;2.13;;;;;;;23.66;33.31;94051.97;4913824;29;20067;-87
2021/06/02 10:20:13;;;;;;;10.88;2.40;;;;;;;23.74;34.40;94064.44;4917028;29;20054;-84
2021/06/02 10:22:40;;;;;;;6.63;3.65;;;;;;;23.66;34.04;94060.06;4915128;29;20066;-84
2021/06/02 10:25:08;;;;;;;5.50;2.55;;;;;;;23.53;34.39;94053.34;4921283;29;20119;-88
2021/06/02 10:27:34;;;;;;;11.55;3.53;;;;;;;23.24;34.55;94054.00;4920419;29;20048;-87
2021/06/02 10:30:00;;;;;;;8.73;2.50;;;;;;;23.38;35.54;94058.84;4907273;29;20440;-84
2021/06/02 10:32:26;;;;;;;5.07;2.78;;;;;;;23.59;34.77;94054.59;4917511;29;20098;-88
2021/06/02 10:34:54;;;;;;;2.75;2.42;;;;;;;23.92;34.81;94055.78;4919143;29;20071;-84
2021/06/02 10:37:23;;;;;;;5.43;2.65;;;;;;;23.81;34.76;94062.97;4901134;29;20122;-86
2021/06/02 10:40:06;;;;;;;6.50;4.43;;;;;;;23.77;34.33;94060.22;4918323;29;20046;-84
2021/06/02 10:42:40;;;;;;;5.47;3.28;;;;;;;23.74;35.07;94053.66;4918082;29;20039;-86
2021/06/02 10:45:31;;;;;;;18.45;7.30;;;;;;;23.65;34.20;94052.34;4919108;28;20099;-85
2021/06/02 10:48:02;;;;;;;8.10;3.20;;;;;;;23.70;34.80;94050.09;4918405;29;20130;-86
2021/06/02 10:50:38;;;;;;;4.80;2.50;;;;;;;23.56;34.44;94049.91;4914178;29;20046;-86
2021/06/02 10:53:21;;;;;;;6.18;2.55;;;;;;;23.33;34.96;94058.00;4918745;29;20051;-87
2021/06/02 10:55:52;;;;;;;6.60;2.90;;;;;;;23.35;36.52;94054.97;4919545;29;20031;-89
2021/06/02 10:58:25;;;;;;;4.55;2.70;;;;;;;23.26;35.57;94059.84;4919856;29;20535;-87
2021/06/02 11:01:07;;;;;;;8.23;3.20;;;;;;;23.05;36.19;94067.56;4918168;29;20979;-88
2021/06/02 11:03:34;;;;;;;8.55;2.83;;;;;;;23.07;35.71;94062.59;4918764;29;20127;-85
2021/06/02 11:06:19;;;;;;;5.68;4.18;;;;;;;23.03;37.50;94067.13;4917015;29;20059;-87
2021/06/02 11:08:51;;;;;;;16.35;6.63;;;;;;;23.21;36.88;94065.53;4908327;29;20324;-88
2021/06/02 11:11:40;;;;;;;5.00;2.72;;;;;;;23.06;36.81;94063.75;4918742;29;20048;-82
2021/06/02 11:14:15;;;;;;;3.63;2.50;;;;;;;23.15;36.54;94066.97;4921632;29;20036;-85
2021/06/02 11:16:46;;;;;;;9.43;3.15;;;;;;;22.99;37.09;94064.41;4918483;29;20027;-84
2021/06/02 11:19:17;;;;;;;6.63;3.08;;;;;;;23.09;37.16;94071.09;4916439;29;20044;-86
2021/06/02 11:21:51;;;;;;;5.43;2.80;;;;;;;23.01;36.66;94070.22;4917741;29;20358;-82
2021/06/02 11:27:10;;;;;;;7.00;3.20;;;;;;;22.85;37.71;94080.31;4919028;29;20055;-87
2021/06/02 11:29:35;;;;;;;10.63;5.55;;;;;;;22.92;37.71;94076.97;4918777;29;20043;-86
2021/06/02 11:32:14;;;;;;;5.22;3.25;;;;;;;22.93;37.53;94059.66;4919519;29;20452;-87
2021/06/02 11:34:40;;;;;;;5.53;2.90;;;;;;;22.89;37.68;94070.38;4917613;29;20134;-86
2021/06/02 11:37:08;;;;;;;4.00;2.97;;;;;;;22.94;37.94;94072.00;4922349;29;20036;-87
2021/06/02 11:39:36;;;;;;;4.35;2.78;;;;;;;22.93;38.58;94071.22;4919448;29;20717;-89
2021/06/02 11:42:04;;;;;;;6.20;2.92;;;;;;;22.77;38.03;94068.63;4918414;29;20607;-86
2021/06/02 11:44:34;;;;;;;5.95;2.80;;;;;;;22.63;37.78;94068.34;4905940;29;20054;-89
2021/06/02 11:47:01;;;;;;;6.93;3.15;;;;;;;22.63;37.80;94056.78;4913713;29;20118;-87
2021/06/02 11:49:31;;;;;;;4.97;3.03;;;;;;;22.69;37.79;94061.53;4920863;29;20047;-87
2021/06/02 11:52:12;;;;;;;7.88;3.53;;;;;;;22.91;35.57;94061.94;4919958;29;20071;-88
2021/06/02 11:54:56;;;;;;;4.28;3.10;;;;;;;23.12;36.89;94059.59;4917752;29;20032;-86
2021/06/02 11:57:31;;;;;;;4.68;2.72;;;;;;;23.39;36.47;94055.00;4916902;29;20677;-88
2021/06/02 11:59:59;;;;;;;2.85;2.00;;;;;;;23.54;34.34;94046.81;4915680;29;20047;-86
2021/06/02 12:02:25;;;;;;;6.35;2.10;;;;;;;23.59;34.36;94051.88;4917487;29;20980;-86
2021/06/02 12:04:51;;;;;;;4.68;2.20;;;;;;;23.61;34.00;94044.19;4920701;28;20039;-85
2021/06/02 12:07:26;;;;;;;6.50;2.40;;;;;;;23.73;33.57;94054.78;4922527;29;20888;-85
2021/06/02 12:09:53;;;;;;;3.47;2.22;;;;;;;;;;4914487;29;20047;-85
2021/06/02 12:12:19;;;;;;;5.72;2.97;;;;;;;24.06;34.20;94050.56;4903593;29;20072;-83
2021/06/02 12:14:55;;;;;;;4.60;2.05;;;;;;;23.87;32.78;94045.31;4894840;29;20570;-88
2021/06/02 12:17:31;;;;;;;4.22;2.20;;;;;;;23.81;33.31;94041.38;4913518;29;20601;-87